Portada
METAR-TAF:

METAR-TAF

Aeropuertos :

Aeropuerto de Kagoshima

Kagoshima, Japón

latitud: 31-48N, longitud: 130-43E, altitud: 272 m

Observación

El informe se hizo hace 37 minutos, a las 04:00 UTC
Viento 3 kt con dirección variable
Temperatura 14°C
Humedad 41%
Presión 1028 hPa
Visibilidad 10 km o más
Escasas nubes a una altura de 2000 ft

METAR: RJFK 200400Z VRB03KT 9999 FEW020 14/01 Q1028 RMK 1CU020 A3036 VOLCANIC ASH CLOUD S

Hora: 13:37 (04:37 UTC)

Pronóstico

El informe se hizo hace 5 horas y 27 minutos, a las 23:10 UTC
Pronóstico válido del 20 a las 00 UTC al 21 a las 06 UTC
Viento 8 kt del noroeste
Visibilidad 10 km o más
Escasas nubes a una altura de 3000 ft
Evolucionando progresivamente
del 20 a las 21 UTC al 21 a las 00 UTC
Viento 6 kt del sureste

TAF: RJFK 192310Z 2000/2106 32008KT 9999 FEW030 BECMG 2021/2100 14006KT

Observaciones y pronósticos meteorológicos de más de 4000 aeropuertos (mensajes METAR y TAF).

Los puntos amarillos y rojos representan las estaciones disponibles.

Ponga el ratón en el punto deseado para ver el nombre de la estación.

Haga clic para ver las observaciones y los pronósticos meteorológicos.

Para cambiar el mapa : haga clic en los botones verdes con una cruz de color negro para hacer un zoom, en el botón verde con un guión para alejar o en las flechas verdes para mapas adyacentes.


METAR-TAF: